Time;durP1;ratioP1;P1;durP2;ratioP2;P2;SDS_P1;SDS_P2;PMS_P1;PMS_P2;Temp;Humidity;BMP_temperature;BMP_pressure;BME280_temperature;BME280_humidity;BME280_pressure;Samples;Min_cycle;Max_cycle;Signal;HPM_P1;HPM_P2
2022/06/15 00:02:43;;;;;;;15.45;6.30;;;;;;;;;;8492536;27;20077;-92
2022/06/15 00:06:46;;;;;;;17.10;6.57;;;;;;;;;;8491717;27;20039;-91
2022/06/15 00:10:48;;;;;;;14.48;6.28;;;;;;;;;;8490941;27;20046;-92
2022/06/15 00:14:51;;;;;;;13.73;5.70;;;;;;;;;;8489745;27;20406;-90
2022/06/15 00:18:55;;;;;;;10.15;4.30;;;;;;;;;;8474306;27;20043;-92
2022/06/15 00:22:57;;;;;;;10.85;4.57;;;;;;;;;;8493734;27;20050;-92
2022/06/15 00:27:00;;;;;;;11.20;4.38;;;;;;;;;;8490086;27;20035;-93
2022/06/15 00:31:04;;;;;;;12.88;4.70;;;;;;;;;;8492917;27;20501;-86
2022/06/15 00:35:08;;;;;;;9.40;4.85;;;;;;;;;;8488427;27;20039;-88
2022/06/15 00:39:12;;;;;;;12.35;4.82;;;;;;;;;;8492953;27;20054;-94
2022/06/15 00:43:14;;;;;;;23.80;6.32;;;;;;;;;;8485543;28;20055;-93
2022/06/15 00:47:21;;;;;;;9.60;5.20;;;;;;;;;;8481551;28;20044;-88
2022/06/15 00:51:27;;;;;;;17.38;6.00;;;;;;;;;;8482248;28;20043;-88
2022/06/15 00:55:33;;;;;;;11.55;5.13;;;;;;;;;;8486490;28;20407;-93
2022/06/15 00:59:41;;;;;;;16.05;6.13;;;;;;;;;;8475769;28;20042;-90
2022/06/15 01:03:44;;;;;;;12.15;5.40;;;;;;;;;;8484238;28;20036;-87
2022/06/15 01:08:04;;;;;;;10.80;4.88;;;;;;;;;;8495486;28;20048;-91
2022/06/15 01:12:17;;;;;;;11.50;4.53;;;;;;;;;;8497641;27;20039;-92
2022/06/15 01:16:31;;;;;;;9.52;4.20;;;;;;;;;;8495228;27;20044;-95
2022/06/15 01:20:52;;;;;;;10.75;4.80;;;;;;;;;;8489378;27;20044;-95
2022/06/15 01:25:15;;;;;;;9.80;4.72;;;;;;;;;;8493355;27;20051;-93
2022/06/15 01:29:46;;;;;;;8.15;4.00;;;;;;;;;;8501185;27;20485;-92
2022/06/15 01:34:02;;;;;;;10.50;4.68;;;;;;;;;;8495595;27;20043;-91
2022/06/15 01:38:21;;;;;;;9.82;4.30;;;;;;;;;;8487149;27;20043;-95
2022/06/15 01:42:29;;;;;;;9.45;4.25;;;;;;;;;;8503373;27;20046;-93
2022/06/15 01:46:32;;;;;;;10.55;4.25;;;;;;;;;;8490293;27;20043;-92
2022/06/15 01:50:39;;;;;;;6.35;3.53;;;;;;;;;;8495594;27;20063;-90
2022/06/15 01:54:46;;;;;;;9.02;4.35;;;;;;;;;;8495471;27;20050;-91
2022/06/15 01:58:52;;;;;;;6.95;3.70;;;;;;;;;;8501908;27;20474;-94
2022/06/15 02:03:06;;;;;;;5.63;3.58;;;;;;;;;;8497672;27;20043;-95
2022/06/15 02:07:21;;;;;;;9.65;4.22;;;;;;;;;;8477342;27;20444;-93
2022/06/15 02:11:31;;;;;;;6.97;4.20;;;;;;;;;;8500934;27;20035;-87
2022/06/15 02:15:36;;;;;;;9.95;3.80;;;;;;;;;;8495018;27;20103;-92
2022/06/15 02:19:43;;;;;;;8.05;4.32;;;;;;;;;;8499818;27;20394;-93
2022/06/15 02:23:52;;;;;;;6.05;3.72;;;;;;;;;;8482168;27;20047;-93
2022/06/15 02:27:55;;;;;;;9.48;4.43;;;;;;;;;;8499588;27;20049;-90
2022/06/15 02:31:58;;;;;;;6.78;4.05;;;;;;;;;;8478254;27;20091;-93
2022/06/15 02:36:02;;;;;;;8.02;4.13;;;;;;;;;;8497133;27;20096;-92
2022/06/15 02:40:07;;;;;;;8.82;4.50;;;;;;;;;;8489147;27;20410;-94
2022/06/15 02:44:14;;;;;;;9.27;4.05;;;;;;;;;;8501433;27;20035;-92
2022/06/15 02:48:18;;;;;;;8.60;4.40;;;;;;;;;;8498031;27;20046;-93
2022/06/15 02:52:23;;;;;;;7.97;4.43;;;;;;;;;;8486718;27;20436;-94
2022/06/15 02:56:29;;;;;;;10.55;4.00;;;;;;;;;;8498097;27;20527;-93
2022/06/15 03:00:32;;;;;;;8.93;4.38;;;;;;;;;;8490150;27;20047;-93
2022/06/15 03:04:34;;;;;;;8.57;3.95;;;;;;;;;;8496063;27;20046;-91
2022/06/15 03:08:37;;;;;;;7.97;4.55;;;;;;;;;;8499692;27;20047;-90
2022/06/15 03:12:41;;;;;;;14.20;4.43;;;;;;;;;;8499969;27;20043;-94
2022/06/15 03:16:47;;;;;;;7.97;4.40;;;;;;;;;;8499584;27;20403;-91
2022/06/15 03:20:50;;;;;;;10.75;4.50;;;;;;;;;;8488672;27;20036;-92
2022/06/15 03:24:52;;;;;;;6.95;4.40;;;;;;;;;;8498778;27;20067;-91
2022/06/15 03:28:56;;;;;;;7.45;4.10;;;;;;;;;;8494706;27;20051;-93
2022/06/15 03:32:59;;;;;;;9.27;4.97;;;;;;;;;;8492117;27;20376;-93
2022/06/15 03:37:01;;;;;;;13.93;8.30;;;;;;;;;;8484041;27;20130;-95
2022/06/15 03:41:04;;;;;;;14.65;9.65;;;;;;;;;;8492896;27;20070;-95
2022/06/15 03:45:12;;;;;;;12.45;9.68;;;;;;;;;;8489682;27;20035;-94
2022/06/15 03:49:15;;;;;;;9.10;6.50;;;;;;;;;;8494094;27;20375;-94
2022/06/15 03:53:18;;;;;;;10.13;7.00;;;;;;;;;;8492227;27;20039;-93
2022/06/15 03:57:22;;;;;;;11.18;8.57;;;;;;;;;;8483776;27;20043;-92
2022/06/15 04:01:26;;;;;;;14.20;11.73;;;;;;;;;;8494486;27;20043;-86
2022/06/15 04:05:33;;;;;;;10.02;6.50;;;;;;;;;;8489896;27;20049;-93
2022/06/15 04:09:35;;;;;;;9.15;5.10;;;;;;;;;;8498027;27;20427;-94
2022/06/15 04:13:38;;;;;;;10.48;5.10;;;;;;;;;;8492055;27;20044;-94
2022/06/15 04:17:44;;;;;;;10.30;5.00;;;;;;;;;;8498022;27;20092;-95
2022/06/15 04:21:47;;;;;;;9.15;4.93;;;;;;;;;;8499235;27;20424;-94
2022/06/15 04:25:52;;;;;;;12.30;8.75;;;;;;;;;;8485001;27;20055;-94
2022/06/15 04:29:55;;;;;;;11.80;8.10;;;;;;;;;;8489067;27;20162;-94
2022/06/15 04:39:16;;;;;;;12.15;7.05;;;;;;;;;;8377912;28;20049;-96
2022/06/15 04:43:19;;;;;;;8.60;5.80;;;;;;;;;;8383873;28;20146;-94
2022/06/15 04:47:21;;;;;;;8.38;4.85;;;;;;;;;;8388535;28;20055;-95
2022/06/15 04:51:26;;;;;;;13.63;4.97;;;;;;;;;;8372704;28;20108;-91
2022/06/15 04:55:30;;;;;;;6.65;3.83;;;;;;;;;;8377928;28;20049;-88
2022/06/15 04:59:33;;;;;;;8.00;4.20;;;;;;;;;;8380571;28;20080;-95
2022/06/15 05:03:37;;;;;;;10.10;4.45;;;;;;;;;;8369906;28;20531;-92
2022/06/15 05:07:40;;;;;;;9.15;4.13;;;;;;;;;;8389645;28;20454;-95
2022/06/15 05:11:45;;;;;;;9.13;3.85;;;;;;;;;;8373650;28;20045;-90
2022/06/15 05:15:47;;;;;;;7.95;3.55;;;;;;;;;;8375708;28;20510;-92
2022/06/15 05:19:50;;;;;;;6.72;3.85;;;;;;;;;;8389890;28;20049;-93
2022/06/15 05:23:53;;;;;;;6.47;3.78;;;;;;;;;;8484927;28;20116;-93
2022/06/15 05:27:58;;;;;;;7.43;3.75;;;;;;;;;;8481847;28;20043;-92
2022/06/15 05:32:07;;;;;;;9.23;3.80;;;;;;;;;;8498938;28;20538;-86
2022/06/15 05:40:53;;;;;;;9.93;3.72;;;;;;;;;;8388848;28;20052;-94
2022/06/15 05:45:01;;;;;;;7.63;3.33;;;;;;;;;;8400803;28;20044;-95
2022/06/15 05:49:05;;;;;;;7.55;2.95;;;;;;;;;;8398445;28;20068;-96
2022/06/15 05:53:07;;;;;;;7.93;4.15;;;;;;;;;;8392940;28;20447;-94
2022/06/15 05:57:12;;;;;;;7.65;3.38;;;;;;;;;;8399771;28;20065;-91
2022/06/15 06:01:21;;;;;;;6.75;2.67;;;;;;;;;;8421341;28;20609;-95
2022/06/15 06:05:28;;;;;;;5.00;3.13;;;;;;;;;;8416548;28;20043;-95
2022/06/15 06:09:32;;;;;;;6.65;2.90;;;;;;;;;;8421515;28;20056;-95
2022/06/15 06:13:46;;;;;;;8.20;3.05;;;;;;;;;;8425863;28;20055;-94
2022/06/15 06:17:51;;;;;;;5.55;2.30;;;;;;;;;;8406652;28;20095;-86
2022/06/15 06:21:59;;;;;;;6.68;2.28;;;;;;;;;;8403893;28;20060;-86
2022/06/15 06:26:20;;;;;;;6.00;1.95;;;;;;;;;;8404577;28;20083;-87
2022/06/15 06:30:24;;;;;;;8.90;2.40;;;;;;;;;;8397201;28;20045;-87
2022/06/15 06:39:24;;;;;;;5.45;1.90;;;;;;;;;;8352051;28;20064;-88
2022/06/15 06:43:28;;;;;;;5.72;2.20;;;;;;;;;;8343444;28;20056;-92
2022/06/15 06:47:31;;;;;;;5.93;1.90;;;;;;;;;;8425395;28;20562;-87
2022/06/15 07:01:11;;;;;;;7.00;2.20;;;;;;;;;;8342193;28;20055;-91
2022/06/15 07:05:32;;;;;;;6.43;2.20;;;;;;;;;;8437189;28;20120;-91
2022/06/15 07:10:28;;;;;;;5.85;2.50;;;;;;;;;;8460328;28;20087;-93
2022/06/15 07:14:51;;;;;;;5.90;2.00;;;;;;;;;;8447397;28;20076;-89
2022/06/15 07:19:01;;;;;;;4.60;2.00;;;;;;;;;;8458655;28;20040;-90
2022/06/15 07:23:11;;;;;;;5.10;1.90;;;;;;;;;;8437631;28;20052;-91
2022/06/15 07:27:16;;;;;;;4.68;2.13;;;;;;;;;;8474522;27;20546;-92
2022/06/15 07:31:30;;;;;;;6.88;2.17;;;;;;;;;;8490999;27;20043;-92
2022/06/15 07:35:36;;;;;;;8.55;2.55;;;;;;;;;;8500244;27;20045;-93
2022/06/15 07:39:42;;;;;;;5.18;2.22;;;;;;;;;;8497999;27;20050;-94
2022/06/15 07:43:49;;;;;;;8.18;2.47;;;;;;;;;;8475188;27;20487;-94
2022/06/15 07:52:19;;;;;;;7.80;2.00;;;;;;;;;;8483742;27;20159;-87
2022/06/15 07:56:23;;;;;;;5.82;2.10;;;;;;;;;;8486191;27;20043;-91
2022/06/15 08:00:28;;;;;;;4.57;1.90;;;;;;;;;;8483308;27;20493;-90
2022/06/15 08:04:32;;;;;;;6.57;2.03;;;;;;;;;;8494146;27;20047;-96
2022/06/15 08:08:36;;;;;;;6.85;1.70;;;;;;;;;;8465194;27;20092;-92
2022/06/15 08:12:38;;;;;;;4.78;2.10;;;;;;;;;;8483471;27;20069;-94
2022/06/15 08:16:44;;;;;;;6.13;2.10;;;;;;;;;;8477465;27;20091;-96
2022/06/15 08:20:54;;;;;;;4.93;1.60;;;;;;;;;;8488119;27;20422;-92
2022/06/15 08:24:57;;;;;;;6.55;2.40;;;;;;;;;;8476187;27;20134;-94
2022/06/15 08:29:05;;;;;;;6.53;2.00;;;;;;;;;;8474908;27;20088;-89
2022/06/15 08:33:13;;;;;;;4.97;2.00;;;;;;;;;;8473974;27;20039;-91
2022/06/15 08:37:20;;;;;;;5.35;2.00;;;;;;;;;;8499043;27;20043;-94
2022/06/15 08:41:55;;;;;;;6.35;1.90;;;;;;;;;;8493850;27;20058;-93
2022/06/15 08:46:11;;;;;;;6.03;2.80;;;;;;;;;;8481613;27;20074;-90
2022/06/15 08:50:31;;;;;;;5.43;2.22;;;;;;;;;;8493909;28;20058;-90
2022/06/15 08:54:40;;;;;;;9.25;2.60;;;;;;;;;;8496279;28;20071;-88
2022/06/15 08:58:47;;;;;;;5.80;2.00;;;;;;;;;;8494160;28;20039;-91
2022/06/15 09:03:02;;;;;;;4.45;1.80;;;;;;;;;;8485302;28;20606;-94
2022/06/15 09:07:33;;;;;;;3.17;1.27;;;;;;;;;;8486134;28;20047;-94
2022/06/15 09:16:26;;;;;;;10.70;2.70;;;;;;;;;;8513602;28;20051;-94
2022/06/15 09:20:44;;;;;;;9.82;2.75;;;;;;;;;;8476470;28;20920;-89
2022/06/15 09:25:03;;;;;;;8.85;2.60;;;;;;;;;;8486782;28;20104;-92
2022/06/15 09:29:20;;;;;;;4.45;1.75;;;;;;;;;;8487913;28;20104;-91
2022/06/15 09:33:29;;;;;;;3.13;1.85;;;;;;;;;;8476217;27;20047;-93
2022/06/15 09:38:00;;;;;;;2.47;1.77;;;;;;;;;;8490488;27;20480;-93
2022/06/15 09:42:19;;;;;;;5.00;2.33;;;;;;;;;;8482890;27;20493;-90
2022/06/15 09:46:33;;;;;;;7.95;2.70;;;;;;;;;;8485655;27;20071;-92
2022/06/15 09:50:53;;;;;;;6.15;2.03;;;;;;;;;;8495926;27;20083;-93
2022/06/15 09:55:16;;;;;;;2.72;2.00;;;;;;;;;;8434565;27;20083;-91
2022/06/15 09:59:33;;;;;;;4.05;1.25;;;;;;;;;;8477893;27;20066;-88
2022/06/15 10:03:46;;;;;;;3.25;2.00;;;;;;;;;;8503378;27;20039;-91
2022/06/15 10:07:50;;;;;;;5.28;2.00;;;;;;;;;;8491434;27;20051;-94
2022/06/15 10:11:55;;;;;;;3.05;1.55;;;;;;;;;;8479573;27;20483;-93
2022/06/15 10:16:04;;;;;;;2.00;1.40;;;;;;;;;;8484961;27;20036;-92
2022/06/15 10:20:22;;;;;;;3.13;1.63;;;;;;;;;;8485882;27;20550;-91
2022/06/15 10:24:28;;;;;;;6.75;1.60;;;;;;;;;;8494477;27;20085;-90
2022/06/15 10:28:35;;;;;;;4.72;2.00;;;;;;;;;;8476704;27;20040;-91
2022/06/15 10:32:57;;;;;;;2.92;1.48;;;;;;;;;;8488179;27;20070;-92
2022/06/15 10:37:06;;;;;;;4.40;1.63;;;;;;;;;;8490716;27;20513;-92
2022/06/15 10:45:33;;;;;;;3.60;1.85;;;;;;;;;;8507583;27;20046;-89
2022/06/15 10:49:48;;;;;;;4.00;1.40;;;;;;;;;;8504898;27;20039;-94
2022/06/15 10:54:23;;;;;;;7.07;1.80;;;;;;;;;;8522711;27;20050;-87
2022/06/15 11:03:12;;;;;;;3.27;1.57;;;;;;;;;;8484525;27;20057;-93
2022/06/15 11:07:42;;;;;;;2.80;1.50;;;;;;;;;;8504323;27;20052;-95
2022/06/15 11:11:56;;;;;;;4.38;1.52;;;;;;;;;;8510177;27;20049;-94
2022/06/15 11:20:53;;;;;;;3.72;1.80;;;;;;;;;;8517145;27;20042;-92
2022/06/15 11:29:58;;;;;;;4.78;2.15;;;;;;;;;;8511084;27;20047;-94
2022/06/15 11:34:28;;;;;;;4.70;1.75;;;;;;;;;;8511577;27;20059;-96
2022/06/15 11:38:49;;;;;;;3.75;1.35;;;;;;;;;;8489305;27;20048;-89
2022/06/15 11:42:55;;;;;;;4.28;1.70;;;;;;;;;;8482506;27;20066;-95
2022/06/15 11:47:16;;;;;;;2.00;1.58;;;;;;;;;;8486400;27;20039;-94
2022/06/15 11:51:34;;;;;;;3.58;1.73;;;;;;;;;;8483956;27;20046;-94
2022/06/15 11:55:46;;;;;;;4.97;2.03;;;;;;;;;;8490938;27;20053;-88
2022/06/15 12:00:19;;;;;;;3.65;1.60;;;;;;;;;;8325890;28;20041;-96
2022/06/15 12:04:51;;;;;;;4.55;1.80;;;;;;;;;;8307558;28;20065;-95
2022/06/15 12:09:05;;;;;;;6.25;1.95;;;;;;;;;;8313358;28;20041;-89
2022/06/15 12:13:27;;;;;;;3.28;1.85;;;;;;;;;;8312774;28;20115;-89
2022/06/15 12:17:42;;;;;;;3.10;1.80;;;;;;;;;;8307672;28;20175;-93
2022/06/15 12:21:55;;;;;;;4.38;1.98;;;;;;;;;;8319105;28;20060;-87
2022/06/15 12:26:13;;;;;;;5.22;1.80;;;;;;;;;;8314026;28;20119;-91
2022/06/15 12:30:32;;;;;;;4.82;1.80;;;;;;;;;;8303343;28;20501;-91
2022/06/15 12:34:51;;;;;;;5.30;1.67;;;;;;;;;;8302927;28;20061;-91
2022/06/15 12:39:11;;;;;;;3.78;1.67;;;;;;;;;;8407574;28;20651;-93
2022/06/15 12:43:36;;;;;;;6.65;1.88;;;;;;;;;;8412506;28;20072;-94
2022/06/15 12:47:42;;;;;;;2.45;1.63;;;;;;;;;;8405793;28;20102;-91
2022/06/15 12:51:55;;;;;;;4.18;1.90;;;;;;;;;;8403789;28;20048;-90
2022/06/15 12:56:16;;;;;;;3.03;1.67;;;;;;;;;;8404122;28;20044;-89
2022/06/15 13:00:50;;;;;;;5.47;1.63;;;;;;;;;;8408894;28;20122;-94
2022/06/15 13:05:19;;;;;;;4.28;1.95;;;;;;;;;;8421076;28;20723;-92
2022/06/15 13:09:24;;;;;;;4.20;1.75;;;;;;;;;;8422430;28;20096;-85
2022/06/15 13:13:36;;;;;;;4.28;1.65;;;;;;;;;;8438266;28;20764;-85
2022/06/15 13:22:17;;;;;;;5.18;2.10;;;;;;;;;;8430523;28;20474;-85
2022/06/15 13:27:00;;;;;;;2.90;1.88;;;;;;;;;;8491745;27;20055;-85
2022/06/15 13:31:08;;;;;;;3.28;1.70;;;;;;;;;;8495339;27;20114;-88
2022/06/15 13:35:44;;;;;;;4.50;1.60;;;;;;;;;;8516777;27;20047;-95
2022/06/15 13:40:04;;;;;;;6.07;1.80;;;;;;;;;;8402968;27;20058;-87
2022/06/15 13:44:21;;;;;;;2.33;1.50;;;;;;;;;;8503090;27;20143;-94
2022/06/15 13:48:56;;;;;;;5.28;2.03;;;;;;;;;;8483757;27;20063;-92
2022/06/15 13:53:24;;;;;;;4.78;2.08;;;;;;;;;;8493103;27;20047;-87
2022/06/15 13:58:11;;;;;;;3.88;1.60;;;;;;;;;;8505881;27;20047;-93
2022/06/15 14:02:41;;;;;;;5.18;1.90;;;;;;;;;;8475927;27;20388;-91
2022/06/15 14:07:33;;;;;;;5.28;2.10;;;;;;;;;;8496749;27;20050;-86
2022/06/15 14:21:36;;;;;;;3.00;1.38;;;;;;;;;;8440858;28;20052;-90
2022/06/15 14:26:00;;;;;;;3.08;1.42;;;;;;;;;;8449005;28;20031;-93
2022/06/15 14:30:37;;;;;;;2.88;1.40;;;;;;;;;;8456344;28;20070;-85
2022/06/15 14:34:47;;;;;;;4.70;1.70;;;;;;;;;;8442870;28;20431;-89
2022/06/15 14:39:21;;;;;;;3.67;1.65;;;;;;;;;;8413659;28;20040;-87
2022/06/15 14:43:51;;;;;;;3.85;1.63;;;;;;;;;;8434358;28;20059;-87
2022/06/15 14:59:48;;;;;;;4.15;1.80;;;;;;;;;;8203717;29;20044;-95
2022/06/15 15:04:19;;;;;;;2.17;1.33;;;;;;;;;;8196034;29;20650;-94
2022/06/15 15:08:38;;;;;;;4.18;1.63;;;;;;;;;;8186899;28;20115;-91
2022/06/15 15:12:48;;;;;;;4.00;1.92;;;;;;;;;;8173608;29;20051;-92
2022/06/15 15:17:16;;;;;;;4.07;2.28;;;;;;;;;;8173029;29;20067;-93
2022/06/15 15:22:10;;;;;;;4.90;2.03;;;;;;;;;;8163411;29;20059;-93
2022/06/15 15:27:17;;;;;;;1.75;1.45;;;;;;;;;;8155034;29;20064;-88
2022/06/15 15:37:35;;;;;;;3.03;1.70;;;;;;;;;;8277548;28;20050;-87
2022/06/15 15:41:11;;;;;;;3.63;1.90;;;;;;;;;;8295976;28;20494;-87
2022/06/15 15:45:36;;;;;;;3.17;1.70;;;;;;;;;;8282778;28;20105;-86
2022/06/15 15:55:02;;;;;;;1.60;1.40;;;;;;;;;;8263947;28;20043;-94
2022/06/15 15:59:21;;;;;;;4.72;1.80;;;;;;;;;;8280097;28;20062;-96
2022/06/15 16:03:25;;;;;;;6.63;3.00;;;;;;;;;;8335105;28;20095;-92
2022/06/15 16:07:29;;;;;;;4.85;2.70;;;;;;;;;;8388684;28;20047;-95
2022/06/15 16:11:33;;;;;;;5.38;2.30;;;;;;;;;;8379739;28;20053;-90
2022/06/15 16:15:39;;;;;;;2.03;1.60;;;;;;;;;;8387691;28;20049;-90
2022/06/15 16:19:42;;;;;;;3.95;1.70;;;;;;;;;;8383987;28;20139;-92
2022/06/15 16:23:45;;;;;;;3.58;1.90;;;;;;;;;;8376778;28;20080;-88
2022/06/15 16:27:52;;;;;;;2.33;1.67;;;;;;;;;;8378544;28;20056;-85
2022/06/15 16:31:55;;;;;;;3.38;2.00;;;;;;;;;;8382450;28;20056;-86
2022/06/15 16:35:59;;;;;;;5.80;2.70;;;;;;;;;;8378312;28;20566;-88
2022/06/15 16:40:04;;;;;;;4.38;2.08;;;;;;;;;;8364341;28;20519;-89
2022/06/15 16:44:11;;;;;;;4.57;2.33;;;;;;;;;;8389496;28;20063;-87
2022/06/15 16:48:16;;;;;;;4.10;2.00;;;;;;;;;;8390232;28;20132;-91
2022/06/15 16:52:31;;;;;;;3.50;2.00;;;;;;;;;;8386052;28;20893;-93
2022/06/15 16:56:40;;;;;;;6.35;2.40;;;;;;;;;;8387823;28;20052;-85
2022/06/15 17:00:45;;;;;;;6.43;2.30;;;;;;;;;;8404288;28;20105;-88
2022/06/15 17:04:48;;;;;;;7.40;2.20;;;;;;;;;;8444787;28;20062;-88
2022/06/15 17:08:54;;;;;;;4.00;2.20;;;;;;;;;;8510161;28;20047;-86
2022/06/15 17:12:57;;;;;;;4.60;2.15;;;;;;;;;;8491329;28;20130;-92
2022/06/15 17:17:01;;;;;;;2.75;1.90;;;;;;;;;;8501943;28;20046;-88
2022/06/15 17:21:06;;;;;;;4.22;2.28;;;;;;;;;;8494659;28;20050;-93
2022/06/15 17:25:11;;;;;;;3.47;2.17;;;;;;;;;;8495420;28;20062;-91
2022/06/15 17:29:20;;;;;;;5.93;2.38;;;;;;;;;;8493901;28;20051;-94
2022/06/15 17:33:25;;;;;;;4.05;2.20;;;;;;;;;;8489062;28;20035;-87
2022/06/15 17:37:33;;;;;;;10.73;3.58;;;;;;;;;;8493944;28;20042;-86
2022/06/15 17:41:42;;;;;;;5.47;2.72;;;;;;;;;;8493875;28;20037;-92
2022/06/15 17:45:48;;;;;;;3.80;2.20;;;;;;;;;;8463952;28;20139;-90
2022/06/15 17:49:59;;;;;;;3.85;2.00;;;;;;;;;;8467622;28;20166;-89
2022/06/15 17:54:33;;;;;;;3.28;2.05;;;;;;;;;;8474392;27;20047;-89
2022/06/15 17:58:43;;;;;;;7.18;2.78;;;;;;;;;;8478329;27;20544;-93
2022/06/15 18:02:50;;;;;;;8.50;2.83;;;;;;;;;;8484909;27;20546;-91
2022/06/15 18:06:54;;;;;;;5.22;2.50;;;;;;;;;;8497487;27;20100;-92
2022/06/15 18:11:01;;;;;;;4.75;2.40;;;;;;;;;;8490695;27;20047;-90
2022/06/15 18:15:08;;;;;;;7.18;2.53;;;;;;;;;;8449509;27;20052;-91
2022/06/15 18:19:20;;;;;;;6.25;2.60;;;;;;;;;;8448153;27;20387;-92
2022/06/15 18:23:25;;;;;;;4.90;2.58;;;;;;;;;;8487101;27;20488;-90
2022/06/15 18:27:28;;;;;;;5.18;3.25;;;;;;;;;;8495633;27;20048;-91
2022/06/15 18:31:36;;;;;;;4.55;2.50;;;;;;;;;;8490560;27;20047;-92
2022/06/15 18:35:45;;;;;;;4.97;2.50;;;;;;;;;;8496571;27;20796;-92
2022/06/15 18:40:02;;;;;;;6.18;3.47;;;;;;;;;;8487117;27;20042;-92
2022/06/15 18:48:32;;;;;;;7.60;2.80;;;;;;;;;;8501542;27;20043;-92
2022/06/15 18:52:37;;;;;;;4.28;2.58;;;;;;;;;;8501601;27;20151;-93
2022/06/15 18:56:44;;;;;;;5.78;2.70;;;;;;;;;;8500225;27;20505;-93
2022/06/15 19:01:09;;;;;;;12.93;6.60;;;;;;;;;;8498980;27;20452;-91
2022/06/15 19:05:29;;;;;;;16.15;6.93;;;;;;;;;;8500343;27;20099;-89
2022/06/15 19:09:44;;;;;;;10.40;3.85;;;;;;;;;;8500757;27;20088;-89
2022/06/15 19:14:00;;;;;;;10.25;2.92;;;;;;;;;;8500100;27;20043;-89
2022/06/15 19:18:20;;;;;;;8.02;3.22;;;;;;;;;;8500259;27;20047;-90
2022/06/15 19:22:56;;;;;;;11.00;7.53;;;;;;;;;;8500521;27;20050;-93
2022/06/15 19:27:24;;;;;;;8.82;3.42;;;;;;;;;;8491268;27;20047;-91
2022/06/15 19:31:36;;;;;;;12.98;7.70;;;;;;;;;;8487300;27;20054;-91
2022/06/15 19:35:46;;;;;;;22.27;11.73;;;;;;;;;;8488584;27;20112;-90
2022/06/15 19:39:49;;;;;;;8.75;4.93;;;;;;;;;;8462275;27;20607;-90
2022/06/15 19:43:53;;;;;;;12.70;5.57;;;;;;;;;;8500620;27;20650;-90
2022/06/15 19:47:58;;;;;;;8.48;4.40;;;;;;;;;;8514605;27;20039;-86
2022/06/15 19:52:01;;;;;;;7.65;3.22;;;;;;;;;;8501682;27;20031;-84
2022/06/15 19:56:07;;;;;;;23.45;11.02;;;;;;;;;;8526269;27;20084;-84
2022/06/15 20:00:15;;;;;;;15.65;8.05;;;;;;;;;;8517674;27;20050;-85
2022/06/15 20:04:20;;;;;;;13.75;7.15;;;;;;;;;;8501466;27;20054;-94
2022/06/15 20:08:23;;;;;;;40.75;20.33;;;;;;;;;;8495946;27;20122;-91
2022/06/15 20:12:27;;;;;;;24.88;10.70;;;;;;;;;;8498976;27;20035;-93
2022/06/15 20:16:38;;;;;;;25.98;11.65;;;;;;;;;;8500586;27;20052;-87
2022/06/15 20:20:58;;;;;;;18.75;7.88;;;;;;;;;;8478217;27;20047;-87
2022/06/15 20:25:14;;;;;;;14.48;8.18;;;;;;;;;;8411683;27;20699;-91
2022/06/15 20:34:35;;;;;;;16.33;9.05;;;;;;;;;;8470518;27;20043;-90
2022/06/15 20:38:58;;;;;;;22.75;11.98;;;;;;;;;;8473028;27;20051;-93
2022/06/15 20:43:10;;;;;;;12.15;6.72;;;;;;;;;;8473606;27;20040;-91
2022/06/15 20:47:24;;;;;;;9.70;5.70;;;;;;;;;;8473975;27;20527;-87
2022/06/15 20:51:35;;;;;;;13.13;7.28;;;;;;;;;;8474241;27;20059;-87
2022/06/15 21:00:13;;;;;;;9.10;4.95;;;;;;;;;;8472717;28;20506;-92
2022/06/15 21:04:17;;;;;;;9.10;4.75;;;;;;;;;;8472539;28;20127;-94
2022/06/15 21:08:21;;;;;;;7.55;4.78;;;;;;;;;;8476128;28;20050;-92
2022/06/15 21:21:06;;;;;;;10.95;5.60;;;;;;;;;;8485027;28;20043;-85
2022/06/15 21:25:14;;;;;;;9.38;5.68;;;;;;;;;;8500052;28;20055;-87
2022/06/15 21:29:18;;;;;;;10.63;5.35;;;;;;;;;;8493035;27;20043;-88
2022/06/15 21:33:22;;;;;;;10.77;5.68;;;;;;;;;;8494596;27;20452;-87
2022/06/15 21:37:28;;;;;;;11.90;6.07;;;;;;;;;;8495568;27;20062;-88
2022/06/15 21:41:34;;;;;;;12.15;6.43;;;;;;;;;;8505603;27;20043;-85
2022/06/15 21:45:43;;;;;;;15.00;6.93;;;;;;;;;;8492722;27;20387;-85
2022/06/15 21:49:46;;;;;;;11.02;6.68;;;;;;;;;;8498406;27;20395;-88
2022/06/15 21:53:51;;;;;;;10.07;6.53;;;;;;;;;;8489453;27;20112;-85
2022/06/15 21:57:55;;;;;;;12.55;6.50;;;;;;;;;;8491903;27;20043;-86
2022/06/15 22:01:59;;;;;;;13.32;6.20;;;;;;;;;;8468765;27;20459;-86
2022/06/15 22:06:03;;;;;;;13.30;7.18;;;;;;;;;;8482830;27;20135;-87
2022/06/15 22:10:06;;;;;;;12.35;7.18;;;;;;;;;;8486795;27;20047;-87
2022/06/15 22:14:10;;;;;;;10.43;6.03;;;;;;;;;;8490667;27;20044;-87
2022/06/15 22:18:14;;;;;;;11.23;6.43;;;;;;;;;;8501866;27;20051;-87
2022/06/15 22:22:17;;;;;;;10.85;6.88;;;;;;;;;;8501535;27;20051;-87
2022/06/15 22:26:19;;;;;;;12.63;6.85;;;;;;;;;;8496508;27;20055;-87
2022/06/15 22:30:22;;;;;;;13.88;7.20;;;;;;;;;;8494678;27;20411;-89
2022/06/15 22:34:26;;;;;;;11.73;6.45;;;;;;;;;;8481818;27;20047;-86
2022/06/15 22:38:29;;;;;;;12.00;6.97;;;;;;;;;;8500588;27;20046;-86
2022/06/15 22:42:32;;;;;;;14.55;6.80;;;;;;;;;;8490545;27;20046;-89
2022/06/15 22:46:35;;;;;;;11.93;6.70;;;;;;;;;;8487118;27;20046;-89
2022/06/15 22:50:42;;;;;;;13.40;6.75;;;;;;;;;;8497046;27;20044;-86
2022/06/15 22:54:45;;;;;;;10.85;6.70;;;;;;;;;;8501329;27;20449;-88
2022/06/15 22:58:47;;;;;;;10.25;7.00;;;;;;;;;;8498838;27;20035;-90
2022/06/15 23:02:54;;;;;;;13.18;7.45;;;;;;;;;;8499713;27;20107;-88
2022/06/15 23:06:58;;;;;;;11.50;6.57;;;;;;;;;;8499309;27;20103;-88
2022/06/15 23:11:01;;;;;;;11.23;6.72;;;;;;;;;;8500658;27;20058;-88
2022/06/15 23:15:03;;;;;;;10.60;6.90;;;;;;;;;;8498034;27;20054;-89
2022/06/15 23:19:06;;;;;;;13.45;6.97;;;;;;;;;;8491546;27;20502;-88
2022/06/15 23:23:12;;;;;;;11.10;6.72;;;;;;;;;;8500312;27;20442;-89
2022/06/15 23:27:15;;;;;;;9.38;5.82;;;;;;;;;;8499843;27;20055;-90
2022/06/15 23:31:20;;;;;;;10.23;6.72;;;;;;;;;;8494201;27;20096;-88
2022/06/15 23:35:24;;;;;;;13.02;7.13;;;;;;;;;;8496835;27;20459;-89
2022/06/15 23:39:28;;;;;;;11.85;7.03;;;;;;;;;;8497160;27;20100;-88
2022/06/15 23:43:30;;;;;;;13.18;6.90;;;;;;;;;;8497881;27;20060;-90
2022/06/15 23:47:33;;;;;;;10.13;6.57;;;;;;;;;;8480800;27;20405;-88
2022/06/15 23:51:35;;;;;;;10.65;6.20;;;;;;;;;;8496867;27;20406;-87
2022/06/15 23:55:40;;;;;;;10.82;6.63;;;;;;;;;;8485676;27;20478;-89
2022/06/15 23:59:42;;;;;;;11.50;6.65;;;;;;;;;;8490432;27;20043;-88
